»·PEaware :: N5GL KSBA-L70

N5GL :: KSBA-L70

FLIGHT INFORMATION

Flight Status: Arrived
Operator: Privately registered:
United States
More flights under this callsign
Pilot: Georg L. (13308)
Aircraft: SOCATA TBM-900
(TBM9)
More flights by this aircraft type
Origin: KSBA Santa Barbara Mun
United States
Destination: L70 Agua Dulce
United States
More flights between these airports :: More routes between these airports
Route: KWANG5 HENER
File this flight plan on PilotEdge
Remarks:
Altitude:
(Current/Filed)
17,000ft
Speed:
(Current/Filed)
290kts
Departed: 20-Apr-20 12:24 PM
Arrived: 20-Apr-20 12:52 PM
Distance/Time
Traveled:
76nm/0:28
Distance/Time
To Go:
Arrived

Flight Plot

Page will automatically refresh every two minutes.

Flight plan parsing failed; only flown route is shown


Map Options




Map Legend


Flown Route
Filed Route
Departure Airport
Arrival Airport
Navaid (VOR, NDB)
Fix

Horizontal Profiles

Position Reports

Time Latitude Longitude Heading Altitude Ground
Speed
20-Apr-20 11:57 34.422768 -119.835701 0 13ft 0kts
20-Apr-20 11:58 34.422768 -119.835701 303 13ft 0kts
20-Apr-20 11:59 34.422768 -119.835701 303 13ft 0kts
20-Apr-20 12:00 34.422768 -119.835701 303 13ft 0kts
20-Apr-20 12:01 34.422768 -119.835701 303 13ft 0kts
20-Apr-20 12:02 34.422768 -119.835701 303 13ft 0kts
20-Apr-20 12:03 34.422768 -119.835701 303 13ft 0kts
20-Apr-20 12:04 34.422768 -119.835701 303 13ft 0kts
20-Apr-20 12:05 34.422768 -119.835701 303 13ft 0kts
20-Apr-20 12:06 34.422768 -119.835701 303 13ft 0kts
20-Apr-20 12:07 34.422768 -119.835701 303 13ft 0kts
20-Apr-20 12:08 34.422768 -119.835701 303 13ft 0kts
20-Apr-20 12:09 34.422768 -119.835701 303 13ft 0kts
20-Apr-20 12:10 34.422768 -119.835701 303 13ft 0kts
20-Apr-20 12:11 34.422768 -119.835701 303 13ft 0kts
20-Apr-20 12:12 34.422768 -119.835701 303 13ft 0kts
20-Apr-20 12:13 34.422768 -119.835701 303 13ft 0kts
20-Apr-20 12:14 34.422768 -119.835701 303 13ft 0kts
20-Apr-20 12:15 34.422768 -119.835701 303 13ft 0kts
20-Apr-20 12:16 34.422895 -119.836428 267 13ft 0kts
20-Apr-20 12:17 34.424606 -119.837711 345 13ft 20kts
20-Apr-20 12:18 34.426754 -119.835776 87 13ft 13kts
20-Apr-20 12:18 34.427085 -119.835253 359 13ft 0kts
20-Apr-20 12:20 34.427085 -119.835253 359 13ft 0kts
20-Apr-20 12:21 34.427085 -119.835253 359 13ft 0kts
20-Apr-20 12:21 34.427085 -119.835253 359 13ft 0kts
20-Apr-20 12:22 34.427868 -119.835664 277 13ft 14kts
20-Apr-20 12:23 34.425794 -119.870104 238 1408ft 145kts
20-Apr-20 12:25 34.405542 -119.839058 71 3065ft 212kts
20-Apr-20 12:25 34.411908 -119.784072 106 5043ft 196kts
20-Apr-20 12:26 34.388942 -119.723042 114 7153ft 206kts
20-Apr-20 12:27 34.369205 -119.657501 82 9269ft 214kts
20-Apr-20 12:28 34.376877 -119.584065 82 11364ft 225kts
20-Apr-20 12:29 34.384846 -119.507253 82 13399ft 236kts
20-Apr-20 12:30 34.393189 -119.426447 83 15299ft 247kts
20-Apr-20 12:31 34.401920 -119.341426 83 17002ft 266kts
20-Apr-20 12:32 34.410828 -119.254054 83 17014ft 308kts
20-Apr-20 12:33 34.421533 -119.148360 83 17004ft 317kts
20-Apr-20 12:34 34.432758 -119.036223 83 15362ft 344kts
20-Apr-20 12:35 34.444177 -118.921224 83 13345ft 336kts
20-Apr-20 12:36 34.454974 -118.811471 83 11332ft 319kts
20-Apr-20 12:37 34.465153 -118.706954 83 9322ft 303kts
20-Apr-20 12:38 34.474819 -118.606829 82 7321ft 296kts
20-Apr-20 12:39 34.483328 -118.518059 82 5297ft 240kts
20-Apr-20 12:40 34.484922 -118.443379 98 3629ft 205kts
20-Apr-20 12:41 34.476184 -118.381949 94 3334ft 165kts
20-Apr-20 12:42 34.502294 -118.332956 36 3944ft 209kts
20-Apr-20 12:43 34.532889 -118.289661 100 4106ft 142kts
20-Apr-20 12:44 34.510379 -118.301966 236 3007ft 89kts
20-Apr-20 12:45 34.495479 -118.325609 232 3052ft 121kts
20-Apr-20 12:46 34.512785 -118.348863 19 4135ft 157kts
20-Apr-20 12:47 34.520111 -118.307640 168 4044ft 150kts
20-Apr-20 12:48 34.506304 -118.272440 57 4097ft 164kts
20-Apr-20 12:49 34.534407 -118.255580 286 4361ft 148kts
20-Apr-20 12:50 34.513691 -118.296658 235 3103ft 116kts
20-Apr-20 12:51 34.502500 -118.314903 303 2611ft 5kts
20-Apr-20 12:52 34.503635 -118.313846 358 2611ft 4kts
20-Apr-20 12:53 34.503809 -118.313704 143 2611ft 0kts
20-Apr-20 12:54 34.503809 -118.313704 143 2611ft 0kts
20-Apr-20 12:55 34.503809 -118.313704 143 2611ft 0kts
20-Apr-20 12:56 34.503809 -118.313704 143 2611ft 0kts
20-Apr-20 12:57 34.503809 -118.313704 143 2611ft 0kts
20-Apr-20 12:58 34.503809 -118.313704 143 2611ft 0kts
20-Apr-20 12:59 34.503809 -118.313704 143 2611ft 0kts

Navigation Log

Ident Type
Flight plan parsing failed, navigation log unavailable